Time;durP1;ratioP1;P1;durP2;ratioP2;P2;SDS_P1;SDS_P2;PMS_P1;PMS_P2;Temp;Humidity;BMP_temperature;BMP_pressure;BME280_temperature;BME280_humidity;BME280_pressure;Samples;Min_cycle;Max_cycle;Signal;HPM_P1;HPM_P2
2022/01/27 00:01:58;;;;;;;6.18;5.63;;;16.50;58.80;;;;;;4958695;29;20038;-19
2022/01/27 00:04:36;;;;;;;6.82;5.97;;;16.50;59.00;;;;;;4958084;28;20035;-19
2022/01/27 00:07:02;;;;;;;6.20;5.60;;;16.50;58.90;;;;;;4957841;28;20090;-19
2022/01/27 00:10:05;;;;;;;6.68;6.07;;;16.50;58.80;;;;;;4956303;28;20039;-20
2022/01/27 00:12:31;;;;;;;6.30;5.80;;;16.50;58.80;;;;;;4958002;29;20027;-19
2022/01/27 00:15:08;;;;;;;6.28;5.60;;;16.50;58.90;;;;;;4958061;28;20122;-19
2022/01/27 00:17:39;;;;;;;5.65;5.15;;;16.50;58.80;;;;;;4956523;28;20057;-19
2022/01/27 00:20:06;;;;;;;5.53;5.00;;;16.50;58.90;;;;;;4959709;28;20073;-19
2022/01/27 00:22:31;;;;;;;6.55;6.05;;;16.50;58.80;;;;;;4955482;28;20118;-19
2022/01/27 00:24:57;;;;;;;6.55;5.95;;;16.50;58.70;;;;;;4958347;28;20066;-20
2022/01/27 00:27:22;;;;;;;6.15;5.65;;;16.50;58.60;;;;;;4958749;28;20094;-19
2022/01/27 00:29:48;;;;;;;6.88;5.82;;;16.50;58.50;;;;;;4957846;28;20038;-19
2022/01/27 00:32:13;;;;;;;6.55;6.00;;;16.50;58.60;;;;;;4958876;28;20035;-20
2022/01/27 00:34:39;;;;;;;6.45;5.95;;;16.40;58.70;;;;;;4953984;28;20023;-20
2022/01/27 00:37:05;;;;;;;5.68;5.28;;;16.40;58.80;;;;;;4955135;28;20043;-19
2022/01/27 00:39:30;;;;;;;6.25;5.75;;;16.40;58.80;;;;;;4955150;28;20027;-19
2022/01/27 00:41:56;;;;;;;7.50;6.00;;;16.40;58.90;;;;;;4956893;29;20099;-20
2022/01/27 00:44:21;;;;;;;6.57;5.97;;;16.40;58.80;;;;;;4956440;28;20500;-20
2022/01/27 00:46:47;;;;;;;5.45;5.05;;;16.50;58.60;;;;;;4958269;29;20037;-19
2022/01/27 00:49:13;;;;;;;6.28;5.70;;;16.40;58.70;;;;;;4953887;28;20563;-19
2022/01/27 00:51:42;;;;;;;6.20;5.65;;;16.40;58.90;;;;;;4957386;28;20484;-19
2022/01/27 00:54:15;;;;;;;6.22;5.72;;;16.40;58.90;;;;;;4956071;28;20046;-19
2022/01/27 00:56:51;;;;;;;5.70;5.30;;;16.40;58.80;;;;;;4952403;28;20054;-19
2022/01/27 01:02:03;;;;;;;5.60;5.10;;;16.40;58.80;;;;;;4957738;28;20050;-19
2022/01/27 01:04:33;;;;;;;5.57;5.10;;;16.30;58.70;;;;;;4958272;28;20101;-20
2022/01/27 01:06:59;;;;;;;6.15;4.95;;;16.30;58.90;;;;;;4955871;28;20431;-19
2022/01/27 01:17:12;;;;;;;6.15;5.60;;;16.30;59.00;;;;;;4957789;28;20029;-19
2022/01/27 01:32:56;;;;;;;5.90;5.50;;;16.30;58.70;;;;;;4953996;28;20037;-20
2022/01/27 01:35:28;;;;;;;5.55;5.15;;;16.30;58.70;;;;;;4954981;28;20047;-19
2022/01/27 01:37:57;;;;;;;5.85;5.35;;;16.30;58.70;;;;;;4956451;29;20030;-19
2022/01/27 01:40:23;;;;;;;6.03;5.43;;;16.20;59.00;;;;;;4957402;28;20038;-19
2022/01/27 01:42:48;;;;;;;5.70;5.30;;;16.20;58.90;;;;;;4956584;28;20481;-20
2022/01/27 01:45:17;;;;;;;5.53;5.13;;;16.20;59.00;;;;;;4954956;28;20102;-19
2022/01/27 01:47:46;;;;;;;6.57;5.38;;;16.20;58.90;;;;;;4956901;28;20086;-19
2022/01/27 01:50:12;;;;;;;5.80;5.40;;;16.30;58.70;;;;;;4957235;28;20031;-19
2022/01/27 01:52:38;;;;;;;6.13;5.60;;;16.30;58.80;;;;;;4957081;28;20114;-21
2022/01/27 01:55:05;;;;;;;5.93;5.47;;;16.30;58.70;;;;;;4957136;28;20094;-20
2022/01/27 01:57:31;;;;;;;5.30;4.90;;;16.20;58.80;;;;;;4957162;28;20082;-20
2022/01/27 01:59:57;;;;;;;5.72;5.32;;;16.20;58.80;;;;;;4954861;28;20507;-19
2022/01/27 02:02:22;;;;;;;5.43;5.00;;;16.30;58.60;;;;;;4949145;28;20024;-19
2022/01/27 02:04:48;;;;;;;5.50;5.10;;;16.20;58.80;;;;;;4956701;29;20038;-20
2022/01/27 02:07:41;;;;;;;6.00;5.50;;;16.20;58.70;;;;;;4955459;28;20042;-19
2022/01/27 02:18:03;;;;;;;5.05;4.72;;;16.20;58.70;;;;;;4955063;29;20030;-19
2022/01/27 02:20:32;;;;;;;6.05;5.65;;;16.20;58.80;;;;;;4955583;28;20036;-20
2022/01/27 02:22:58;;;;;;;5.15;4.85;;;16.20;58.70;;;;;;4954866;29;20015;-19
2022/01/27 02:25:24;;;;;;;5.32;4.95;;;16.30;58.60;;;;;;4953310;29;20077;-20
2022/01/27 02:27:55;;;;;;;4.65;4.35;;;16.20;58.70;;;;;;4955970;28;20035;-19
2022/01/27 02:30:22;;;;;;;5.88;5.35;;;16.10;58.90;;;;;;4958721;28;20042;-19
2022/01/27 02:32:50;;;;;;;6.10;5.70;;;16.20;58.80;;;;;;4956895;28;20035;-19
2022/01/27 02:35:15;;;;;;;5.60;5.15;;;16.20;58.80;;;;;;4951511;29;20151;-20
2022/01/27 02:37:41;;;;;;;5.07;4.78;;;16.20;58.80;;;;;;4954840;28;20055;-19
2022/01/27 02:40:07;;;;;;;5.47;5.07;;;16.20;58.70;;;;;;4956280;28;20031;-19
2022/01/27 02:42:34;;;;;;;5.28;4.88;;;16.20;58.50;;;;;;4956780;28;20020;-20
2022/01/27 02:45:13;;;;;;;5.20;4.80;;;16.20;58.70;;;;;;4953172;28;20480;-19
2022/01/27 02:47:39;;;;;;;5.13;4.63;;;16.10;58.80;;;;;;4951214;29;20674;-20
2022/01/27 02:50:05;;;;;;;4.97;4.63;;;16.10;58.90;;;;;;4954328;28;20568;-19
2022/01/27 02:52:31;;;;;;;4.85;4.45;;;16.20;58.70;;;;;;4954929;28;20039;-19
2022/01/27 02:54:57;;;;;;;5.70;5.20;;;16.00;58.90;;;;;;4955283;28;20090;-19
2022/01/27 02:57:23;;;;;;;5.25;4.93;;;16.00;59.00;;;;;;4955115;28;20079;-19
2022/01/27 02:59:49;;;;;;;5.10;4.80;;;16.10;58.70;;;;;;4956095;28;20027;-19
2022/01/27 03:02:15;;;;;;;4.78;4.47;;;16.20;58.70;;;;;;4955069;28;20083;-20
2022/01/27 03:04:41;;;;;;;4.97;4.68;;;16.10;58.80;;;;;;4955175;28;20508;-20
2022/01/27 03:07:06;;;;;;;5.30;4.80;;;16.20;58.80;;;;;;4956930;28;20125;-20
2022/01/27 03:09:33;;;;;;;5.20;4.80;;;16.20;58.60;;;;;;4954739;28;20027;-19
2022/01/27 03:12:06;;;;;;;5.53;5.13;;;16.20;58.60;;;;;;4955365;28;20057;-18
2022/01/27 03:14:31;;;;;;;5.30;4.90;;;16.20;58.60;;;;;;4956550;28;20138;-19
2022/01/27 03:16:58;;;;;;;4.75;4.45;;;16.10;58.60;;;;;;4956216;28;20051;-19
2022/01/27 03:19:24;;;;;;;5.03;4.68;;;16.20;58.60;;;;;;4956008;28;20098;-19
2022/01/27 03:21:50;;;;;;;5.35;4.95;;;16.10;58.60;;;;;;4955823;28;20035;-19
2022/01/27 03:24:16;;;;;;;5.13;4.72;;;16.10;58.70;;;;;;4959620;28;20469;-19
2022/01/27 03:26:43;;;;;;;5.18;4.78;;;16.10;58.70;;;;;;4958027;28;20062;-20
2022/01/27 03:29:08;;;;;;;5.65;5.25;;;16.10;58.80;;;;;;4958208;28;20043;-19
2022/01/27 03:31:35;;;;;;;5.53;5.10;;;16.00;58.80;;;;;;4959241;28;20023;-20
2022/01/27 03:34:00;;;;;;;5.32;5.03;;;16.10;58.70;;;;;;4959003;28;20031;-19
2022/01/27 03:36:26;;;;;;;5.22;4.82;;;16.10;58.50;;;;;;4959905;28;20585;-19
2022/01/27 03:38:52;;;;;;;5.07;4.78;;;16.10;58.60;;;;;;4959501;28;20019;-19
2022/01/27 03:41:20;;;;;;;5.10;4.78;;;16.10;58.50;;;;;;4958928;28;20388;-19
2022/01/27 03:43:46;;;;;;;4.82;4.45;;;16.10;58.70;;;;;;4956031;28;20036;-19
2022/01/27 03:46:12;;;;;;;4.55;4.25;;;16.10;58.70;;;;;;4956004;28;20400;-20
2022/01/27 03:48:37;;;;;;;4.88;4.47;;;16.00;59.50;;;;;;4959528;28;20111;-19
2022/01/27 03:51:03;;;;;;;4.97;4.57;;;16.00;58.80;;;;;;4956107;28;20023;-20
2022/01/27 03:53:30;;;;;;;5.30;4.90;;;16.10;58.70;;;;;;4957909;29;20034;-19
2022/01/27 03:55:55;;;;;;;5.00;4.70;;;16.10;58.50;;;;;;4957986;28;20027;-20
2022/01/27 03:58:21;;;;;;;5.28;4.85;;;16.20;58.40;;;;;;4959387;28;20024;-19
2022/01/27 04:00:46;;;;;;;5.28;4.93;;;16.00;58.60;;;;;;4958154;28;20035;-20
2022/01/27 04:03:14;;;;;;;5.40;4.97;;;16.00;58.90;;;;;;4958800;28;20111;-21
2022/01/27 04:05:43;;;;;;;4.78;4.47;;;16.00;58.70;;;;;;4957061;28;20102;-19
2022/01/27 04:08:11;;;;;;;5.00;4.60;;;16.00;58.70;;;;;;4953167;28;20603;-19
2022/01/27 04:10:37;;;;;;;4.38;4.07;;;16.00;58.60;;;;;;4958464;29;20110;-19
2022/01/27 04:13:03;;;;;;;4.13;3.88;;;16.10;58.60;;;;;;4956805;28;20070;-19
2022/01/27 04:15:29;;;;;;;4.80;4.50;;;16.10;58.60;;;;;;4958785;28;20038;-20
2022/01/27 04:17:55;;;;;;;4.82;4.53;;;16.10;58.60;;;;;;4958814;28;20035;-20
2022/01/27 04:20:20;;;;;;;4.88;4.57;;;16.10;58.60;;;;;;4956332;28;20496;-22
2022/01/27 04:22:46;;;;;;;4.93;4.63;;;16.00;58.50;;;;;;4957650;29;20851;-19
2022/01/27 04:25:12;;;;;;;4.70;4.40;;;16.10;58.50;;;;;;4958693;28;20024;-20
2022/01/27 04:27:42;;;;;;;6.22;4.97;;;16.10;58.60;;;;;;4958329;28;20465;-19
2022/01/27 04:30:15;;;;;;;5.35;5.00;;;16.00;58.70;;;;;;4955027;29;20468;-19
2022/01/27 04:32:46;;;;;;;4.47;4.18;;;16.00;58.60;;;;;;4959076;28;20449;-20
2022/01/27 04:35:15;;;;;;;4.82;4.50;;;16.00;58.50;;;;;;4956103;28;20493;-18
2022/01/27 04:37:52;;;;;;;4.85;4.50;;;16.10;58.50;;;;;;4956434;29;20062;-20
2022/01/27 04:40:25;;;;;;;4.70;4.40;;;16.00;58.50;;;;;;4956548;29;20039;-19
2022/01/27 04:42:59;;;;;;;4.82;4.53;;;16.00;58.60;;;;;;4958092;28;20516;-19
2022/01/27 04:45:30;;;;;;;4.80;4.50;;;16.00;58.50;;;;;;4955682;28;20074;-19
2022/01/27 04:48:06;;;;;;;5.00;4.70;;;16.00;58.50;;;;;;4954114;28;20047;-19
2022/01/27 04:50:31;;;;;;;4.72;4.43;;;16.00;58.50;;;;;;4956651;28;20039;-19
2022/01/27 04:52:59;;;;;;;4.80;4.50;;;16.00;58.50;;;;;;4954786;28;20038;-18
2022/01/27 04:55:25;;;;;;;4.38;4.07;;;16.00;58.50;;;;;;4955085;28;20027;-19
2022/01/27 04:58:06;;;;;;;4.63;4.32;;;16.00;58.40;;;;;;4958769;29;20027;-20
2022/01/27 05:00:32;;;;;;;4.45;4.15;;;16.00;58.50;;;;;;4955967;29;20036;-20
2022/01/27 05:03:00;;;;;;;4.80;4.40;;;16.00;58.50;;;;;;4955721;28;20082;-19
2022/01/27 05:05:26;;;;;;;4.47;4.15;;;16.00;58.40;;;;;;4959039;28;20062;-20
2022/01/27 05:07:58;;;;;;;3.88;3.65;;;16.00;58.30;;;;;;4957724;28;20031;-19
2022/01/27 05:10:27;;;;;;;4.90;4.60;;;16.00;58.50;;;;;;4955994;28;20982;-20
2022/01/27 05:12:59;;;;;;;4.80;4.50;;;16.00;58.50;;;;;;4957934;28;20054;-20
2022/01/27 05:15:25;;;;;;;4.57;4.28;;;16.00;58.30;;;;;;4957777;28;20031;-19
2022/01/27 05:17:51;;;;;;;4.95;4.63;;;16.00;58.40;;;;;;4957742;29;20032;-20
2022/01/27 05:20:16;;;;;;;4.35;4.15;;;16.00;58.50;;;;;;4956915;29;20077;-19
2022/01/27 05:22:42;;;;;;;4.35;4.13;;;16.00;58.40;;;;;;4953235;28;20445;-20
2022/01/27 05:25:08;;;;;;;4.60;4.30;;;16.00;58.40;;;;;;4956416;28;20027;-19
2022/01/27 05:27:33;;;;;;;4.85;4.45;;;16.00;58.30;;;;;;4957634;29;20039;-19
2022/01/27 05:29:59;;;;;;;3.97;3.78;;;16.00;58.40;;;;;;4954384;28;20038;-20
2022/01/27 05:32:24;;;;;;;4.68;4.38;;;16.00;58.50;;;;;;4948947;28;20118;-19
2022/01/27 05:34:50;;;;;;;4.55;4.25;;;16.00;58.40;;;;;;4954389;28;20031;-19
2022/01/27 05:37:16;;;;;;;4.45;4.15;;;16.00;58.40;;;;;;4956829;28;20078;-19
2022/01/27 05:39:41;;;;;;;4.50;4.20;;;16.00;58.40;;;;;;4953807;28;20051;-19
2022/01/27 05:42:07;;;;;;;4.32;4.03;;;16.00;58.40;;;;;;4956315;28;20377;-19
2022/01/27 05:44:32;;;;;;;4.55;4.25;;;16.00;58.40;;;;;;4957036;28;20035;-20
2022/01/27 05:46:58;;;;;;;4.20;4.00;;;16.00;58.50;;;;;;4957825;28;20023;-19
2022/01/27 05:49:24;;;;;;;4.60;4.30;;;16.00;58.40;;;;;;4956534;28;20063;-19
2022/01/27 05:51:49;;;;;;;4.35;4.05;;;16.00;58.40;;;;;;4954193;28;20110;-19
2022/01/27 05:54:15;;;;;;;4.40;4.10;;;16.00;58.50;;;;;;4956556;28;20058;-19
2022/01/27 05:56:41;;;;;;;3.95;3.75;;;16.00;58.40;;;;;;4958704;28;20102;-19
2022/01/27 05:59:06;;;;;;;5.22;4.82;;;16.00;58.40;;;;;;4956442;28;20020;-20
2022/01/27 06:01:32;;;;;;;4.50;4.20;;;16.00;58.30;;;;;;4957391;28;20023;-19
2022/01/27 06:03:57;;;;;;;4.43;4.13;;;16.00;58.40;;;;;;4955515;28;20079;-19
2022/01/27 06:06:23;;;;;;;10.63;5.07;;;15.90;58.60;;;;;;4953774;28;20058;-19
2022/01/27 06:08:49;;;;;;;6.50;5.22;;;15.90;58.60;;;;;;4952896;28;20099;-20
2022/01/27 06:11:14;;;;;;;18.88;12.55;;;15.90;58.90;;;;;;4957860;28;20039;-20
2022/01/27 06:13:40;;;;;;;21.10;13.02;;;15.90;59.50;;;;;;4955177;28;20035;-19
2022/01/27 06:16:10;;;;;;;21.70;14.18;;;15.90;60.80;;;;;;4954567;28;20114;-19
2022/01/27 06:18:39;;;;;;;14.88;12.07;;;15.90;61.90;;;;;;4954305;28;20048;-19
2022/01/27 06:21:06;;;;;;;20.27;13.82;;;15.90;61.90;;;;;;4954290;28;20051;-19
2022/01/27 06:23:31;;;;;;;20.98;14.88;;;16.00;61.40;;;;;;4953554;28;20043;-19
2022/01/27 06:25:58;;;;;;;22.83;15.70;;;15.90;61.10;;;;;;4951912;28;20055;-20
2022/01/27 06:28:24;;;;;;;24.65;16.77;;;15.90;61.10;;;;;;4954693;28;20071;-19
2022/01/27 06:30:49;;;;;;;31.77;18.08;;;16.00;61.00;;;;;;4952745;28;20656;-20
2022/01/27 06:33:15;;;;;;;25.77;16.77;;;16.10;61.10;;;;;;4952173;28;20047;-20
2022/01/27 06:35:41;;;;;;;24.05;17.38;;;16.10;60.70;;;;;;4955138;28;20437;-20
2022/01/27 06:38:07;;;;;;;22.08;16.58;;;16.10;60.50;;;;;;4954675;28;20047;-19
2022/01/27 06:40:32;;;;;;;25.50;16.02;;;16.20;60.60;;;;;;4954580;28;20047;-19
2022/01/27 06:42:58;;;;;;;26.25;16.85;;;16.20;61.20;;;;;;4954133;28;20047;-19
2022/01/27 06:45:24;;;;;;;21.50;15.60;;;16.20;61.10;;;;;;4952663;28;20082;-19
2022/01/27 06:47:49;;;;;;;24.65;15.73;;;16.10;60.80;;;;;;4953120;28;20047;-20
2022/01/27 06:50:15;;;;;;;21.50;15.68;;;16.10;60.40;;;;;;4955133;28;20049;-20
2022/01/27 06:52:41;;;;;;;20.95;15.07;;;16.10;61.10;;;;;;4956097;28;20036;-19
2022/01/27 06:55:10;;;;;;;21.25;14.68;;;16.10;61.30;;;;;;4955117;28;20061;-21
2022/01/27 06:57:36;;;;;;;19.90;14.00;;;16.10;60.70;;;;;;4954810;28;20408;-21
2022/01/27 07:00:06;;;;;;;23.42;15.07;;;16.20;60.90;;;;;;4956859;28;20046;-21
2022/01/27 07:02:32;;;;;;;23.13;14.13;;;16.10;60.60;;;;;;4958417;28;20054;-20
2022/01/27 07:04:58;;;;;;;18.75;13.45;;;16.10;60.50;;;;;;4956778;28;20043;-20
2022/01/27 07:07:23;;;;;;;22.23;15.35;;;16.10;60.50;;;;;;4956247;28;20055;-20
2022/01/27 07:09:49;;;;;;;18.67;14.05;;;16.10;60.40;;;;;;4955011;28;20063;-19
2022/01/27 07:12:14;;;;;;;17.75;13.02;;;16.10;60.40;;;;;;4957136;28;20130;-19
2022/01/27 07:14:40;;;;;;;21.77;14.18;;;16.10;60.30;;;;;;4957238;28;20051;-19
2022/01/27 07:17:06;;;;;;;17.00;12.75;;;16.10;60.30;;;;;;4956755;28;20114;-20
2022/01/27 07:19:31;;;;;;;16.63;12.93;;;16.10;60.30;;;;;;4958476;28;20046;-20
2022/01/27 07:21:57;;;;;;;17.33;13.18;;;16.10;60.30;;;;;;4955707;28;20043;-20
2022/01/27 07:24:23;;;;;;;17.63;13.20;;;16.10;60.30;;;;;;4957383;28;20043;-19
2022/01/27 07:26:49;;;;;;;18.35;13.30;;;16.10;60.20;;;;;;4955530;28;20623;-20
2022/01/27 07:29:14;;;;;;;16.38;12.80;;;16.10;60.20;;;;;;4953563;28;20073;-21
2022/01/27 07:31:40;;;;;;;16.77;12.25;;;16.10;60.20;;;;;;4956276;28;20079;-20
2022/01/27 07:34:05;;;;;;;16.05;12.75;;;16.10;60.20;;;;;;4956972;28;20082;-19
2022/01/27 07:36:31;;;;;;;17.35;13.00;;;16.10;60.20;;;;;;4956080;28;20600;-18
2022/01/27 07:38:57;;;;;;;16.55;11.40;;;16.20;60.00;;;;;;4948927;28;20130;-19
2022/01/27 07:41:23;;;;;;;15.85;10.98;;;16.30;59.80;;;;;;4952751;28;20079;-18
2022/01/27 07:43:48;;;;;;;14.80;10.93;;;16.20;59.70;;;;;;4952531;28;20043;-19
2022/01/27 07:46:14;;;;;;;14.85;11.32;;;16.30;59.60;;;;;;4949120;28;20081;-18
2022/01/27 07:48:40;;;;;;;13.45;11.02;;;16.30;59.60;;;;;;4956629;28;20062;-19
2022/01/27 07:51:07;;;;;;;11.85;10.48;;;16.30;59.60;;;;;;4954312;28;20058;-19
2022/01/27 07:53:34;;;;;;;14.15;10.82;;;16.30;59.50;;;;;;4955221;28;20050;-19
2022/01/27 07:56:02;;;;;;;12.85;10.65;;;16.30;59.70;;;;;;4956528;28;20106;-19
2022/01/27 07:58:28;;;;;;;13.68;9.70;;;16.30;59.70;;;;;;4946110;28;20047;-19
2022/01/27 08:00:54;;;;;;;11.70;10.07;;;16.30;59.60;;;;;;4957728;28;20067;-20
2022/01/27 08:03:19;;;;;;;14.85;10.15;;;16.30;59.90;;;;;;4950274;28;20130;-20
2022/01/27 08:05:45;;;;;;;14.60;11.77;;;16.20;60.90;;;;;;4957629;28;20380;-18
2022/01/27 08:08:10;;;;;;;17.02;10.68;;;16.20;62.30;;;;;;4956855;28;20150;-21
2022/01/27 08:10:39;;;;;;;20.90;11.60;;;16.20;63.30;;;;;;4958153;28;20062;-21
2022/01/27 08:13:07;;;;;;;16.65;11.38;;;16.20;63.30;;;;;;4957422;28;20690;-21
2022/01/27 08:15:33;;;;;;;15.60;10.50;;;16.20;63.10;;;;;;4958017;28;20051;-19
2022/01/27 08:17:59;;;;;;;13.70;10.85;;;16.20;62.60;;;;;;4957507;28;20066;-20
2022/01/27 08:20:24;;;;;;;15.57;11.02;;;16.20;62.20;;;;;;4959028;28;20528;-20
2022/01/27 08:22:52;;;;;;;12.52;9.70;;;16.20;61.80;;;;;;4948559;28;20043;-21
2022/01/27 08:25:19;;;;;;;16.58;9.57;;;16.20;61.70;;;;;;4939838;28;20458;-19
2022/01/27 08:27:47;;;;;;;12.65;9.93;;;16.20;61.50;;;;;;4947867;28;20186;-20
2022/01/27 08:30:15;;;;;;;13.02;9.98;;;16.20;61.30;;;;;;4956943;28;20500;-20
2022/01/27 08:32:50;;;;;;;12.30;9.73;;;16.20;61.30;;;;;;4939777;28;20051;-20
2022/01/27 08:35:19;;;;;;;13.57;10.13;;;16.20;61.20;;;;;;4939025;28;20062;-20
2022/01/27 08:37:45;;;;;;;16.52;9.73;;;16.20;61.10;;;;;;4947684;28;20055;-21
2022/01/27 08:40:13;;;;;;;16.02;10.77;;;16.20;61.00;;;;;;4958071;28;20058;-20
2022/01/27 08:42:40;;;;;;;12.70;9.27;;;16.10;60.90;;;;;;4958691;28;20039;-19
2022/01/27 08:45:10;;;;;;;11.10;9.35;;;16.20;61.00;;;;;;4939813;28;20048;-20
2022/01/27 08:47:36;;;;;;;11.52;9.10;;;16.10;60.90;;;;;;4946081;28;20086;-20
2022/01/27 08:50:03;;;;;;;10.93;9.15;;;16.10;60.90;;;;;;4946020;28;20044;-21
2022/01/27 08:52:28;;;;;;;9.60;8.60;;;16.10;61.00;;;;;;4939657;28;20086;-21
2022/01/27 08:54:54;;;;;;;10.18;9.13;;;16.20;61.00;;;;;;4938612;28;20039;-20
2022/01/27 08:57:19;;;;;;;10.60;9.18;;;16.10;60.90;;;;;;4943442;28;20047;-20
2022/01/27 08:59:47;;;;;;;11.20;8.30;;;16.10;60.90;;;;;;4958557;28;20051;-20
2022/01/27 09:02:13;;;;;;;10.30;8.70;;;16.20;60.90;;;;;;4957156;28;20070;-20
2022/01/27 09:04:39;;;;;;;11.75;8.48;;;16.20;60.80;;;;;;4958220;28;20047;-19
2022/01/27 09:07:04;;;;;;;8.88;7.97;;;16.20;60.80;;;;;;4957495;28;20043;-20
2022/01/27 09:09:30;;;;;;;9.55;8.55;;;16.20;60.80;;;;;;4949975;28;20051;-21
2022/01/27 09:11:58;;;;;;;8.98;8.07;;;16.20;60.90;;;;;;4940639;28;20469;-20
2022/01/27 09:14:28;;;;;;;10.40;8.13;;;16.20;60.90;;;;;;4939720;28;20130;-21
2022/01/27 09:16:53;;;;;;;10.77;8.18;;;16.10;60.90;;;;;;4956470;28;20126;-21
2022/01/27 09:19:20;;;;;;;8.48;7.65;;;16.10;60.80;;;;;;4957295;28;20082;-20
2022/01/27 09:21:46;;;;;;;8.68;7.85;;;16.10;60.80;;;;;;4957687;28;20050;-20
2022/01/27 09:24:15;;;;;;;9.27;8.38;;;16.10;60.90;;;;;;4957254;28;20111;-20
2022/01/27 09:29:14;;;;;;;8.65;7.80;;;16.10;60.80;;;;;;4957128;28;20191;-20
2022/01/27 09:31:39;;;;;;;8.90;8.00;;;16.20;60.70;;;;;;4957336;28;20082;-21
2022/01/27 09:34:05;;;;;;;9.05;7.88;;;16.20;60.60;;;;;;4957282;28;20046;-20
2022/01/27 09:36:31;;;;;;;7.90;7.20;;;16.20;60.60;;;;;;4957094;28;20075;-19
2022/01/27 09:38:56;;;;;;;9.55;7.25;;;16.20;60.50;;;;;;4956971;28;20587;-20
2022/01/27 09:41:22;;;;;;;8.05;7.13;;;16.20;60.70;;;;;;4956996;28;20039;-21
2022/01/27 09:43:49;;;;;;;7.35;6.63;;;16.20;60.70;;;;;;4956469;28;20039;-21
2022/01/27 09:46:18;;;;;;;8.00;7.20;;;16.10;60.70;;;;;;4957140;28;20122;-20
2022/01/27 09:48:47;;;;;;;8.55;7.15;;;16.10;60.70;;;;;;4952913;28;20405;-21
2022/01/27 09:53:51;;;;;;;7.95;7.15;;;16.20;60.70;;;;;;4938536;28;20086;-20
2022/01/27 09:56:17;;;;;;;7.32;6.53;;;16.20;60.50;;;;;;4941746;28;20050;-20
2022/01/27 09:58:43;;;;;;;7.80;7.07;;;16.20;60.50;;;;;;4956776;28;20051;-20
2022/01/27 10:01:09;;;;;;;7.88;7.10;;;16.10;60.60;;;;;;4956115;28;20054;-20
2022/01/27 10:03:37;;;;;;;8.07;7.35;;;16.10;60.50;;;;;;4957514;28;20039;-21
2022/01/27 10:06:12;;;;;;;8.13;7.40;;;16.10;60.50;;;;;;4939906;28;20543;-21
2022/01/27 10:08:40;;;;;;;6.95;6.35;;;16.10;60.60;;;;;;4952210;28;20058;-21
2022/01/27 10:11:17;;;;;;;7.13;6.43;;;16.10;60.70;;;;;;4956473;28;20047;-19
2022/01/27 10:13:44;;;;;;;7.95;7.15;;;16.10;60.60;;;;;;4953827;28;20450;-21
2022/01/27 10:16:29;;;;;;;6.88;6.38;;;16.10;60.70;;;;;;4947116;28;20051;-21
2022/01/27 10:19:07;;;;;;;;;;;16.00;60.70;;;;;;4940891;28;20079;-20
2022/01/27 10:21:33;;;;;;;6.75;6.15;;;16.00;60.70;;;;;;4937742;28;19915;-20
2022/01/27 10:24:27;;;;;;;7.78;7.07;;;16.10;60.70;;;;;;4937849;28;20222;-21
2022/01/27 10:27:21;;;;;;;7.43;6.82;;;16.00;60.60;;;;;;4950500;28;20054;-20
2022/01/27 10:30:36;;;;;;;6.40;5.90;;;16.10;60.50;;;;;;4950265;28;20051;-20
2022/01/27 10:32:41;;;;;;;7.82;7.10;;;16.10;60.70;;;;;;4956069;28;20800;-19
2022/01/27 10:35:07;;;;;;;7.55;6.05;;;16.00;60.50;;;;;;4958944;28;20526;-20
2022/01/27 10:37:59;;;;;;;6.40;5.82;;;16.00;60.60;;;;;;4960904;28;20058;-19
2022/01/27 10:40:28;;;;;;;6.97;5.82;;;16.10;60.40;;;;;;4957756;28;20429;-22
2022/01/27 10:43:01;;;;;;;6.18;5.78;;;16.10;60.40;;;;;;4956699;28;20047;-20
2022/01/27 10:45:26;;;;;;;10.48;5.85;;;16.10;60.60;;;;;;4959000;28;20182;-20
2022/01/27 10:47:52;;;;;;;6.78;6.13;;;16.10;60.70;;;;;;4956349;28;20079;-20
2022/01/27 10:50:19;;;;;;;6.30;5.60;;;16.10;60.70;;;;;;4958255;28;20452;-20
2022/01/27 10:52:51;;;;;;;6.05;5.55;;;16.20;60.50;;;;;;4954476;28;20397;-20
2022/01/27 10:55:18;;;;;;;6.35;5.75;;;16.20;60.30;;;;;;4951779;28;20665;-20
2022/01/27 10:57:49;;;;;;;6.03;5.53;;;16.20;60.10;;;;;;4958642;28;20048;-20
2022/01/27 11:00:19;;;;;;;6.22;5.72;;;16.20;60.10;;;;;;4954185;28;20076;-20
2022/01/27 11:02:58;;;;;;;7.25;5.88;;;16.20;60.10;;;;;;4957236;28;20047;-19
2022/01/27 11:05:26;;;;;;;6.97;6.28;;;16.20;60.60;;;;;;4956195;28;20485;-20
2022/01/27 11:07:51;;;;;;;5.85;5.40;;;16.20;60.80;;;;;;4948120;28;20053;-19
2022/01/27 11:10:18;;;;;;;6.50;5.90;;;16.20;61.40;;;;;;4940441;28;20036;-20
2022/01/27 11:12:45;;;;;;;5.53;5.03;;;16.20;60.80;;;;;;4949520;28;20046;-20
2022/01/27 11:15:15;;;;;;;5.38;4.97;;;16.20;60.80;;;;;;4959182;28;20035;-20
2022/01/27 11:17:42;;;;;;;6.10;5.60;;;16.20;60.70;;;;;;4941287;28;20035;-20
2022/01/27 11:28:04;;;;;;;10.23;5.60;;;16.20;60.60;;;;;;4939273;28;20040;-21
2022/01/27 11:30:39;;;;;;;5.78;5.28;;;16.10;60.80;;;;;;4941087;28;20044;-20
2022/01/27 11:33:15;;;;;;;6.57;5.88;;;16.10;60.80;;;;;;4941099;28;20214;-20
2022/01/27 11:35:41;;;;;;;5.82;4.90;;;16.10;60.90;;;;;;4957146;28;20139;-20
2022/01/27 11:38:08;;;;;;;6.40;5.18;;;16.10;61.00;;;;;;4954008;28;20519;-20
2022/01/27 11:40:43;;;;;;;5.53;5.13;;;16.10;60.60;;;;;;4956357;28;20046;-19
2022/01/27 11:43:13;;;;;;;5.00;4.60;;;16.10;60.60;;;;;;4946757;28;20130;-21
2022/01/27 11:45:45;;;;;;;5.28;4.88;;;16.20;60.50;;;;;;4957528;28;20099;-20
2022/01/27 11:48:26;;;;;;;5.45;4.95;;;16.20;60.20;;;;;;4958106;28;20047;-20
2022/01/27 11:51:11;;;;;;;6.03;4.97;;;16.20;60.10;;;;;;4958683;28;20130;-20
2022/01/27 11:53:40;;;;;;;5.40;5.00;;;16.10;60.40;;;;;;4951640;28;20047;-21
2022/01/27 11:56:26;;;;;;;5.30;4.90;;;16.20;60.30;;;;;;4959521;28;20062;-20
2022/01/27 11:59:08;;;;;;;5.32;4.93;;;16.20;60.40;;;;;;4956262;28;20051;-20
2022/01/27 12:01:35;;;;;;;4.72;4.43;;;16.10;60.60;;;;;;4956810;28;20047;-20
2022/01/27 12:04:07;;;;;;;5.10;4.70;;;16.10;60.70;;;;;;4951390;28;20055;-21
2022/01/27 12:06:47;;;;;;;5.57;5.03;;;16.10;60.60;;;;;;4957923;28;20404;-20
2022/01/27 12:09:22;;;;;;;5.65;4.90;;;16.10;60.80;;;;;;4957181;28;20051;-20
2022/01/27 12:12:02;;;;;;;5.43;5.03;;;16.10;60.80;;;;;;4958080;28;20049;-20
2022/01/27 12:14:33;;;;;;;5.80;4.95;;;16.10;60.70;;;;;;4953968;28;20070;-20
2022/01/27 12:17:20;;;;;;;5.38;4.95;;;16.10;60.70;;;;;;4958187;28;20442;-20
2022/01/27 12:19:56;;;;;;;5.57;5.07;;;16.10;60.70;;;;;;4957808;28;20050;-22
2022/01/27 12:22:42;;;;;;;5.22;4.40;;;16.10;60.70;;;;;;4942391;28;20076;-21
2022/01/27 12:25:08;;;;;;;4.60;4.30;;;16.10;60.60;;;;;;4938406;28;20095;-19
2022/01/27 12:27:34;;;;;;;5.10;4.60;;;16.10;60.50;;;;;;4938886;28;20501;-20
2022/01/27 12:30:00;;;;;;;4.93;4.63;;;16.10;60.50;;;;;;4939022;28;20054;-20
2022/01/27 12:32:27;;;;;;;4.97;4.57;;;16.20;60.40;;;;;;4954264;28;20164;-20
2022/01/27 12:34:58;;;;;;;5.25;4.85;;;16.20;60.40;;;;;;4957772;28;20051;-20
2022/01/27 12:37:25;;;;;;;5.07;4.72;;;16.20;60.40;;;;;;4918119;28;1154979;-20
2022/01/27 12:39:54;;;;;;;4.88;4.47;;;16.20;60.30;;;;;;4958930;28;20055;-20
2022/01/27 12:42:20;;;;;;;5.35;4.35;;;16.20;60.20;;;;;;4957170;28;20051;-20
2022/01/27 12:45:10;;;;;;;4.50;4.20;;;16.20;60.20;;;;;;4958453;28;20587;-19
2022/01/27 12:47:40;;;;;;;5.25;4.78;;;16.20;60.10;;;;;;4958184;28;20165;-20
2022/01/27 12:50:09;;;;;;;5.10;4.70;;;16.20;60.00;;;;;;4957624;28;20050;-20
2022/01/27 12:52:39;;;;;;;4.68;4.38;;;16.20;60.00;;;;;;4958649;28;20139;-20
2022/01/27 12:55:06;;;;;;;4.72;4.40;;;16.20;60.00;;;;;;4937961;28;20050;-20
2022/01/27 12:57:32;;;;;;;4.50;4.20;;;16.30;59.90;;;;;;4939257;28;20110;-21
2022/01/27 12:59:59;;;;;;;4.90;4.50;;;16.30;59.80;;;;;;4939240;28;20092;-20
2022/01/27 13:02:25;;;;;;;4.75;4.38;;;16.30;59.80;;;;;;4938754;28;20059;-20
2022/01/27 13:04:55;;;;;;;4.30;4.05;;;16.30;59.80;;;;;;4956891;28;20051;-20
2022/01/27 13:07:21;;;;;;;5.00;4.60;;;16.30;59.70;;;;;;4957321;28;20039;-20
2022/01/27 13:10:17;;;;;;;5.25;4.75;;;16.30;59.70;;;;;;4958114;28;20472;-20
2022/01/27 13:12:53;;;;;;;5.10;4.75;;;16.30;59.60;;;;;;4956813;28;20031;-21
2022/01/27 13:15:21;;;;;;;4.55;4.15;;;16.30;59.50;;;;;;4957423;28;20043;-21
2022/01/27 13:17:56;;;;;;;4.13;3.80;;;16.30;59.40;;;;;;4958310;28;20074;-21
2022/01/27 13:23:09;;;;;;;4.63;4.32;;;16.40;59.30;;;;;;4954060;28;20031;-20
2022/01/27 13:25:41;;;;;;;5.30;4.80;;;16.40;59.30;;;;;;4957417;28;20082;-20
2022/01/27 13:28:17;;;;;;;4.00;3.70;;;16.40;59.20;;;;;;4957445;28;20071;-20
2022/01/27 13:30:43;;;;;;;4.45;4.13;;;16.50;59.20;;;;;;4957357;28;20103;-19
2022/01/27 13:33:12;;;;;;;4.13;3.83;;;16.50;59.10;;;;;;4955796;28;20488;-21
2022/01/27 13:35:38;;;;;;;4.15;3.80;;;16.50;59.10;;;;;;4956483;28;20055;-20
2022/01/27 13:38:22;;;;;;;4.28;3.97;;;16.50;59.10;;;;;;4957857;28;20110;-20